Aviation Digital Data Service (ADDS)

Output produced by METARs form (0520 UTC 26 September 2016)
found at http://aviationweather.gov/adds/metars/
 
KAND 252329Z 2600/2624 13005KT P6SM FEW050 
     FM261200 09003KT P6SM SCT020 BKN250 
     PROB30 2615/2617 4SM -SHRA OVC007 
     FM261700 18005KT P6SM BKN090 
     PROB30 2618/2624 4SM -TSRA OVC040CB